Camp Claiborne, Louisiana
Current Conditions -  °F | °C
As of 9:53 AM on Friday 19 Dec 2014 (Local Time) from KAEX Reporting Station
Light Rain Light Rain  
Wind Chill: 52°   Ceiling: 600
Heat Index: 52°   Visibility: 8mi
Dew Point: 50°   Wind: 7mph
Humidity: 93%   Direction: 50°NE
Pressure: 30.13"   Gusts: NA
Location:  31.0356°N, 92.5053°W
Report Text: KAEX 191553Z 05006KT 8SM -RA OVC006 11/10 A3013 RMK AO2 SLP207 P0003 T01110100
Loading
Personal Weather Stations






























Interactive Weather Map New forecast layout! Learn more

10-Day Weather Forecast

Advertisements
Track Severe Weather on mobile